Time;durP1;ratioP1;P1;durP2;ratioP2;P2;SDS_P1;SDS_P2;PMS_P1;PMS_P2;Temp;Humidity;BMP_temperature;BMP_pressure;BME280_temperature;BME280_humidity;BME280_pressure;Samples;Min_cycle;Max_cycle;Signal;HPM_P1;HPM_P2
2022/06/26 00:00:06;;;;;;;;;;;19.10;99.90;;;;;;4890708;28;192191;-68
2022/06/26 00:02:32;;;;;;;;;;;19.00;99.90;;;;;;4880338;28;188168;-67
2022/06/26 00:04:59;;;;;;;;;;;18.80;99.90;;;;;;4869917;28;293174;-67
2022/06/26 00:07:26;;;;;;;;;;;18.80;99.90;;;;;;4906401;28;182182;-67
2022/06/26 00:09:53;;;;;;;;;;;18.70;99.90;;;;;;4895193;28;179205;-68
2022/06/26 00:12:23;;;;;;;;;;;18.70;99.90;;;;;;4880663;28;431195;-67
2022/06/26 00:14:50;;;;;;;;;;;18.60;99.90;;;;;;4866814;28;316154;-68
2022/06/26 00:17:17;;;;;;;;;;;18.50;99.90;;;;;;4820599;28;331161;-68
2022/06/26 00:19:44;;;;;;;;;;;18.50;99.90;;;;;;4835551;28;303156;-67
2022/06/26 00:22:12;;;;;;;;;;;18.50;99.90;;;;;;4827487;28;463170;-67
2022/06/26 00:24:42;;;;;;;;;;;18.50;99.90;;;;;;4875964;28;324172;-68
2022/06/26 00:27:08;;;;;;;;;;;18.50;99.90;;;;;;4852827;28;561168;-67
2022/06/26 00:29:35;;;;;;;;;;;18.50;99.90;;;;;;4872822;28;249167;-67
2022/06/26 00:32:08;;;;;;;;;;;18.50;99.90;;;;;;4795147;28;639173;-67
2022/06/26 00:34:34;;;;;;;;;;;18.50;99.90;;;;;;4835921;28;208176;-67
2022/06/26 00:37:01;;;;;;;;;;;18.40;99.90;;;;;;4860439;28;248170;-68
2022/06/26 00:39:28;;;;;;;;;;;18.40;99.90;;;;;;4823371;28;655203;-68
2022/06/26 00:41:55;;;;;;;;;;;18.40;99.90;;;;;;4865842;28;315193;-68
2022/06/26 00:44:23;;;;;;;;;;;18.40;99.90;;;;;;4877739;28;142143;-68
2022/06/26 00:46:50;;;;;;;;;;;18.30;99.90;;;;;;4850415;28;248190;-67
2022/06/26 00:49:17;;;;;;;;;;;18.30;99.90;;;;;;4890127;28;27185;-68
2022/06/26 00:51:45;;;;;;;;;;;18.30;99.90;;;;;;4856454;28;98163;-68
2022/06/26 00:54:12;;;;;;;;;;;18.30;99.90;;;;;;4849603;28;258168;-68
2022/06/26 00:56:39;;;;;;;;;;;18.30;99.90;;;;;;4852355;28;298161;-68
2022/06/26 00:59:06;;;;;;;;;;;18.20;99.90;;;;;;4832749;28;491166;-68
2022/06/26 01:01:35;;;;;;;;;;;18.10;99.90;;;;;;4865445;28;275173;-68
2022/06/26 01:04:05;;;;;;;;;;;17.90;99.90;;;;;;4838184;28;450176;-68
2022/06/26 01:06:32;;;;;;;;;;;17.90;99.90;;;;;;4885505;28;275170;-68
2022/06/26 01:08:58;;;;;;;;;;;17.80;99.90;;;;;;4897465;28;119145;-68
2022/06/26 01:11:26;;;;;;;;;;;17.80;99.90;;;;;;4760986;28;946195;-68
2022/06/26 01:13:57;;;;;;;;;;;17.70;99.90;;;;;;4788445;28;613356;-68
2022/06/26 01:16:24;;;;;;;;;;;17.80;99.90;;;;;;4773809;28;615213;-68
2022/06/26 01:18:52;;;;;;;;;;;17.80;99.90;;;;;;4745965;28;1208201;-68
2022/06/26 01:21:18;;;;;;;;;;;17.70;99.90;;;;;;4809934;28;562169;-68
2022/06/26 01:23:46;;;;;;;;;;;17.70;99.90;;;;;;4756646;28;802182;-70
2022/06/26 01:26:14;;;;;;;;;;;17.70;99.90;;;;;;4814400;28;815163;-68
2022/06/26 01:28:41;;;;;;;;;;;17.70;99.90;;;;;;4814779;28;513167;-68
2022/06/26 01:31:08;;;;;;;;;;;17.70;99.90;;;;;;4839066;28;441162;-68
2022/06/26 01:33:35;;;;;;;;;;;17.60;99.90;;;;;;4824204;28;357150;-68
2022/06/26 01:36:02;;;;;;;;;;;17.60;99.90;;;;;;4793681;28;549178;-68
2022/06/26 01:38:29;;;;;;;;;;;17.60;99.90;;;;;;4846406;28;445185;-68
2022/06/26 01:40:56;;;;;;;;;;;17.60;99.90;;;;;;4820048;28;472160;-68
2022/06/26 01:43:25;;;;;;;;;;;17.60;99.90;;;;;;4713438;28;1118211;-68
2022/06/26 01:45:53;;;;;;;;;;;17.60;99.90;;;;;;4797154;28;549169;-68
2022/06/26 01:48:20;;;;;;;;;;;17.60;99.90;;;;;;4811315;28;608209;-69
2022/06/26 01:50:47;;;;;;;;;;;17.50;99.90;;;;;;4840637;28;458190;-68
2022/06/26 01:53:16;;;;;;;;;;;17.50;99.90;;;;;;4764975;28;540179;-69
2022/06/26 01:55:43;;;;;;;;;;;17.50;99.90;;;;;;4795832;28;520186;-68
2022/06/26 01:58:10;;;;;;;;;;;17.50;99.90;;;;;;4683768;28;1193194;-68
2022/06/26 02:00:38;;;;;;;;;;;17.50;99.90;;;;;;4740363;28;946186;-68
2022/06/26 02:03:08;;;;;;;;;;;17.50;99.90;;;;;;4765600;28;751172;-68
2022/06/26 02:05:36;;;;;;;;;;;17.50;99.90;;;;;;4790110;28;806165;-68
2022/06/26 02:08:03;;;;;;;;;;;17.50;99.90;;;;;;4788932;28;786310;-68
2022/06/26 02:16:02;;;;;;;;;;;17.50;99.90;;;;;;4872082;28;280180;-68
2022/06/26 02:18:29;;;;;;;;;;;17.50;99.90;;;;;;4833002;28;505414;-68
2022/06/26 02:20:55;;;;;;;;;;;17.50;99.90;;;;;;4726649;28;1107189;-68
2022/06/26 02:23:22;;;;;;;;;;;17.50;99.90;;;;;;4733667;28;1473223;-68
2022/06/26 02:25:49;;;;;;;;;;;17.50;99.90;;;;;;4671295;28;971337;-68
2022/06/26 02:28:16;;;;;;;;;;;17.40;99.90;;;;;;4716874;28;1271188;-68
2022/06/26 02:30:44;;;;;;;;;;;17.40;99.90;;;;;;4719724;28;1070221;-69
2022/06/26 02:33:11;;;;;;;;;;;17.30;99.90;;;;;;4758442;28;898184;-68
2022/06/26 02:35:38;;;;;;;;;;;17.30;99.90;;;;;;4697625;28;916174;-68
2022/06/26 02:38:05;;;;;;;;;;;17.40;99.90;;;;;;4748950;28;900217;-68
2022/06/26 02:40:35;;;;;;;;;;;17.40;99.90;;;;;;4552149;28;1871194;-68
2022/06/26 02:43:01;;;;;;;;;;;17.40;99.90;;;;;;4703462;28;1080203;-68
2022/06/26 02:45:28;;;;;;;;;;;17.30;99.90;;;;;;4697409;28;713179;-68
2022/06/26 02:47:55;;;;;;;;;;;17.30;99.90;;;;;;4845464;28;343166;-68
2022/06/26 02:50:22;;;;;;;;;;;17.30;99.90;;;;;;4788718;28;450144;-68
2022/06/26 02:52:49;;;;;;;;;;;17.30;99.90;;;;;;4723562;28;978232;-69
2022/06/26 02:55:16;;;;;;;;;;;17.30;99.90;;;;;;4710831;28;1000149;-69
2022/06/26 02:57:43;;;;;;;;;;;17.30;99.90;;;;;;4756236;28;763170;-68
2022/06/26 03:00:11;;;;;;;;;;;17.20;99.90;;;;;;4756622;28;837170;-68
2022/06/26 03:02:38;;;;;;;;;;;17.10;99.90;;;;;;4790492;28;509186;-68
2022/06/26 03:05:06;;;;;;;;;;;17.10;99.90;;;;;;4659510;28;1766188;-68
2022/06/26 03:07:33;;;;;;;;;;;17.00;99.90;;;;;;4684596;28;1224202;-68
2022/06/26 03:10:01;;;;;;;;;;;16.90;99.90;;;;;;4634109;28;1492181;-68
2022/06/26 03:12:28;;;;;;;;;;;16.90;99.90;;;;;;4609392;28;2367192;-67
2022/06/26 03:14:56;;;;;;;;;;;16.80;99.90;;;;;;4719758;28;2047175;-68
2022/06/26 03:17:22;;;;;;;;;;;16.70;99.90;;;;;;4631487;28;1113179;-68
2022/06/26 03:19:52;;;;;;;;;;;16.60;99.90;;;;;;4641157;28;1929189;-68
2022/06/26 03:22:19;;;;;;;;;;;16.60;99.90;;;;;;4765252;28;1025194;-68
2022/06/26 03:24:47;;;;;;;;;;;16.50;99.90;;;;;;4739395;28;1858178;-68
2022/06/26 03:27:14;;;;;;;;;;;16.50;99.90;;;;;;4624216;28;3686205;-68
2022/06/26 03:29:42;;;;;;;;;;;16.40;99.90;;;;;;4744400;28;1058234;-67
2022/06/26 03:32:08;;;;;;;;;;;16.30;99.90;;;;;;4556167;28;3197246;-67
2022/06/26 03:34:36;;;;;;;;;;;16.30;99.90;;;;;;4599452;28;1741200;-67
2022/06/26 03:37:03;;;;;;;;;;;16.30;99.90;;;;;;4565419;28;2379185;-67
2022/06/26 03:39:30;;;;;;;;;;;16.20;99.90;;;;;;4535338;28;3884211;-67
2022/06/26 03:42:00;;;;;;;;;;;16.20;99.90;;;;;;4538554;28;8903204;-68
2022/06/26 03:44:29;;;;;;;;;;;16.10;99.90;;;;;;4591817;28;3447327;-68
2022/06/26 03:46:57;;;;;;;;;;;16.10;99.90;;;;;;4606975;28;3594217;-68
2022/06/26 03:49:27;;;;;;;;;;;16.10;99.90;;;;;;4581195;28;3345482;-68
2022/06/26 03:51:56;;;;;;;;;;;16.10;99.90;;;;;;4520950;28;2504242;-68
2022/06/26 03:54:25;;;;;;;;;;;16.10;99.90;;;;;;4568706;28;1837205;-68
2022/06/26 03:56:52;;;;;;;;;;;16.20;99.90;;;;;;4675737;28;1128194;-69
2022/06/26 03:59:19;;;;;;;;;;;16.30;99.90;;;;;;4608287;28;1985200;-68
2022/06/26 04:01:47;;;;;;;;;;;16.30;99.90;;;;;;4561986;28;1947252;-69
2022/06/26 04:04:14;;;;;;;;;;;16.30;99.90;;;;;;4686383;28;707184;-69
2022/06/26 04:06:43;;;;;;;;;;;16.30;99.90;;;;;;4697803;28;1195186;-69
2022/06/26 04:09:10;;;;;;;;;;;16.40;99.90;;;;;;4721973;28;1252193;-68
2022/06/26 04:11:38;;;;;;;;;;;16.50;99.90;;;;;;4656973;28;1890191;-68
2022/06/26 04:14:05;;;;;;;;;;;16.70;99.90;;;;;;4611886;28;1538193;-68
2022/06/26 04:16:32;;;;;;;;;;;16.80;99.90;;;;;;4586848;28;6093531;-68
2022/06/26 04:19:02;;;;;;;;;;;17.00;99.90;;;;;;4630120;28;4823296;-68
2022/06/26 04:21:30;;;;;;;;;;;17.20;99.90;;;;;;4537132;28;1603185;-68
2022/06/26 04:23:58;;;;;;;;;;;17.30;99.90;;;;;;4779759;28;982183;-68
2022/06/26 04:26:26;;;;;;;;;;;17.40;99.90;;;;;;4788173;28;1888189;-68
2022/06/26 04:28:54;;;;;;;;;;;17.50;99.90;;;;;;4354123;28;17914214;-68
2022/06/26 04:31:23;;;;;;;;;;;17.50;99.90;;;;;;4532028;28;4302195;-68
2022/06/26 04:33:50;;;;;;;;;;;17.50;99.90;;;;;;4575103;28;1480255;-68
2022/06/26 04:36:17;;;;;;;;;;;17.60;99.90;;;;;;4648245;28;2334212;-68
2022/06/26 04:38:44;;;;;;;;;;;17.70;99.90;;;;;;4605819;28;1699206;-68
2022/06/26 04:43:58;;;;;;;;;;;17.90;99.90;;;;;;4711438;28;1348196;-70
2022/06/26 04:46:25;;;;;;;;;;;18.00;99.90;;;;;;4764311;28;1397207;-69
2022/06/26 04:48:52;;;;;;;;;;;18.10;99.90;;;;;;4532386;28;2550249;-69
2022/06/26 04:51:19;;;;;;;;;;;18.30;99.90;;;;;;4608225;28;1412225;-69
2022/06/26 04:53:46;;;;;;;;;;;18.50;99.90;;;;;;4640264;28;1502191;-69
2022/06/26 04:56:13;;;;;;;;;;;18.70;99.90;;;;;;4718878;28;1251177;-69
2022/06/26 04:58:40;;;;;;;;;;;18.90;99.90;;;;;;4735316;28;953174;-69
2022/06/26 05:01:07;;;;;;;;;;;19.10;99.90;;;;;;4821409;28;504198;-69
2022/06/26 05:03:34;;;;;;;;;;;19.30;99.90;;;;;;4842053;28;453202;-69
2022/06/26 05:06:05;;;;;;;;;;;19.60;99.90;;;;;;4885247;28;161157;-69
2022/06/26 05:08:32;;;;;;;;;;;19.90;99.90;;;;;;4889167;28;195163;-69
2022/06/26 05:10:59;;;;;;;;;;;20.20;99.90;;;;;;4882357;28;94148;-70
2022/06/26 05:13:26;;;;;;;;;;;20.40;99.90;;;;;;4865091;28;84087;-69
2022/06/26 05:15:52;;;;;;;;;;;21.30;99.90;;;;;;4881742;28;70151;-69
2022/06/26 05:18:19;;;;;;;;;;;21.90;99.90;;;;;;4870470;28;56152;-69
2022/06/26 05:20:46;;;;;;;;;;;22.10;99.90;;;;;;4868323;28;205144;-69
2022/06/26 05:23:14;;;;;;;;;;;21.80;99.90;;;;;;4903673;28;105170;-69
2022/06/26 05:25:41;;;;;;;;;;;21.60;99.90;;;;;;4924450;28;134179;-69
2022/06/26 05:28:08;;;;;;;;;;;21.40;99.90;;;;;;4911217;28;160164;-69
2022/06/26 05:30:35;;;;;;;;;;;21.20;99.90;;;;;;4918024;28;158151;-69
2022/06/26 05:33:02;;;;;;;;;;;21.00;99.90;;;;;;4901077;28;207163;-70
2022/06/26 05:35:29;;;;;;;;;;;20.90;99.90;;;;;;4910732;28;166150;-70
2022/06/26 05:37:56;;;;;;;;;;;20.60;99.90;;;;;;4889018;28;305168;-70
2022/06/26 05:40:23;;;;;;;;;;;20.50;99.90;;;;;;4873887;28;250161;-70
2022/06/26 05:42:52;;;;;;;;;;;20.40;99.90;;;;;;4891749;28;273165;-70
2022/06/26 05:45:19;;;;;;;;;;;20.30;99.90;;;;;;4896012;28;217182;-70
2022/06/26 05:47:46;;;;;;;;;;;20.30;99.90;;;;;;4886297;28;248181;-70
2022/06/26 05:50:12;;;;;;;;;;;20.50;99.90;;;;;;4884035;28;189190;-70
2022/06/26 05:52:39;;;;;;;;;;;21.40;99.90;;;;;;4896911;28;95150;-69
2022/06/26 05:55:06;;;;;;;;;;;22.30;99.90;;;;;;4883036;28;238165;-70
2022/06/26 05:57:33;;;;;;;;;;;23.00;99.90;;;;;;4874098;28;258207;-69
2022/06/26 06:00:01;;;;;;;;;;;24.70;99.90;;;;;;4909873;28;50145;-67
2022/06/26 06:02:27;;;;;;;;;;;26.40;99.90;;;;;;4923027;28;47094;-66
2022/06/26 06:04:54;;;;;;;;;;;27.50;99.90;;;;;;4918148;28;35109;-67
2022/06/26 06:07:21;;;;;;;;;;;28.20;99.90;;;;;;4924158;28;36064;-67
2022/06/26 06:09:48;;;;;;;;;;;28.30;99.90;;;;;;4926852;28;52071;-67
2022/06/26 06:12:14;;;;;;;;;;;28.40;99.90;;;;;;4911091;28;32075;-66
2022/06/26 06:14:41;;;;;;;;;;;29.30;99.90;;;;;;4928495;28;26088;-67
2022/06/26 06:19:53;;;;;;;;;;;30.50;99.90;;;;;;4934668;28;38100;-67
2022/06/26 06:22:20;;;;;;;;;;;30.80;99.90;;;;;;4936089;28;35099;-67
2022/06/26 06:24:47;;;;;;;;;;;30.80;99.90;;;;;;4950599;28;43076;-67
2022/06/26 06:27:13;;;;;;;;;;;29.90;99.90;;;;;;4943722;28;34163;-66
2022/06/26 06:29:40;;;;;;;;;;;29.90;99.90;;;;;;4929497;28;36068;-67
2022/06/26 06:32:07;;;;;;;;;;;30.70;99.90;;;;;;4937686;28;29063;-68
2022/06/26 06:34:33;;;;;;;;;;;31.30;99.90;;;;;;4951197;28;38123;-67
2022/06/26 06:37:00;;;;;;;;;;;31.80;99.90;;;;;;4945184;28;41177;-68
2022/06/26 06:39:27;;;;;;;;;;;32.30;99.90;;;;;;4930554;28;27118;-68
2022/06/26 06:41:53;;;;;;;;;;;32.80;99.90;;;;;;4947601;28;31086;-68
2022/06/26 06:44:20;;;;;;;;;;;33.20;99.90;;;;;;5038524;28;25058;-68
2022/06/26 06:46:47;;;;;;;;;;;32.40;99.90;;;;;;5064334;28;25069;-68
2022/06/26 06:49:14;;;;;;;;;;;31.70;99.90;;;;;;5055782;28;25061;-68
2022/06/26 06:51:41;;;;;;;;;;;30.80;99.90;;;;;;5066411;28;19931;-68
2022/06/26 06:54:08;;;;;;;;;;;31.40;99.90;;;;;;5035048;28;19938;-68
2022/06/26 06:56:34;;;;;;;;;;;31.50;99.90;;;;;;4995062;28;29125;-68
2022/06/26 06:59:02;;;;;;;;;;;31.30;99.90;;;;;;4997465;28;29089;-68
2022/06/26 07:01:28;;;;;;;;;;;31.40;99.90;;;;;;4970395;28;26202;-68
2022/06/26 07:03:55;;;;;;;;;;;31.70;99.90;;;;;;4934796;28;25235;-68
2022/06/26 07:06:22;;;;;;;;;;;32.00;99.90;;;;;;4939808;28;25083;-67
2022/06/26 07:08:52;;;;;;;;;;;32.40;99.90;;;;;;4946955;28;30165;-67
2022/06/26 07:11:19;;;;;;;;;;;32.50;99.90;;;;;;4964979;28;31140;-67
2022/06/26 07:13:46;;;;;;;;;;;32.30;99.90;;;;;;4949495;28;28367;-67
2022/06/26 07:16:16;;;;;;;;;;;32.40;99.90;;;;;;4967522;28;28152;-67
2022/06/26 07:18:43;;;;;;;;;;;32.10;99.90;;;;;;4972012;28;29237;-68
2022/06/26 07:21:10;;;;;;;;;;;31.50;99.90;;;;;;4999314;28;25076;-68
2022/06/26 07:23:36;;;;;;;;;;;31.50;99.90;;;;;;4967440;28;27213;-68
2022/06/26 07:26:05;;;;;;;;;;;31.40;99.90;;;;;;4994791;28;28117;-67
2022/06/26 07:28:32;;;;;;;;;;;30.20;99.90;;;;;;4967243;28;29176;-68
2022/06/26 07:30:59;;;;;;;;;;;29.50;99.90;;;;;;5006075;28;34084;-68
2022/06/26 07:36:11;;;;;;;;;;;29.60;99.90;;;;;;4937692;28;25064;-67
2022/06/26 07:38:37;;;;;;;;;;;30.40;99.90;;;;;;4945479;28;31194;-67
2022/06/26 07:41:04;;;;;;;;;;;31.40;99.90;;;;;;4949729;28;27087;-68
2022/06/26 07:43:31;;;;;;;;;;;31.60;99.90;;;;;;4950507;28;30099;-67
2022/06/26 07:45:58;;;;;;;;;;;32.10;99.90;;;;;;4934282;28;28312;-67
2022/06/26 07:48:25;;;;;;;;;;;31.80;99.90;;;;;;4947979;28;27097;-66
2022/06/26 07:50:52;;;;;;;;;;;31.90;99.90;;;;;;4914524;28;29200;-69
2022/06/26 07:53:20;;;;;;;;;;;31.10;99.90;;;;;;4914891;28;30127;-69
2022/06/26 07:55:46;;;;;;;;;;;30.70;99.90;;;;;;4897629;28;25083;-69
2022/06/26 07:58:13;;;;;;;;;;;30.50;99.90;;;;;;4899768;28;30193;-67
2022/06/26 08:00:43;;;;;;;;;;;31.00;99.90;;;;;;4890557;28;31264;-66
2022/06/26 08:03:10;;;;;;;;;;;31.50;99.90;;;;;;4898853;28;32165;-65
2022/06/26 08:05:37;;;;;;;;;;;32.00;99.90;;;;;;4950363;28;25064;-66
2022/06/26 08:08:04;;;;;;;;;;;32.20;99.90;;;;;;4973311;28;25047;-67
2022/06/26 08:10:33;;;;;;;;;;;32.00;99.90;;;;;;4952885;28;25052;-66
2022/06/26 08:13:00;;;;;;;;;;;32.40;99.90;;;;;;4911448;28;29115;-67
2022/06/26 08:15:27;;;;;;;;;;;32.70;99.90;;;;;;5021826;28;20411;-67
2022/06/26 08:17:54;;;;;;;;;;;33.40;99.90;;;;;;4927655;28;32130;-67
2022/06/26 08:20:21;;;;;;;;;;;33.10;99.90;;;;;;4917559;28;26101;-66
2022/06/26 08:22:48;;;;;;;;;;;32.70;99.90;;;;;;4985862;28;25058;-66
2022/06/26 08:25:15;;;;;;;;;;;32.80;99.90;;;;;;4913476;28;29100;-67
2022/06/26 08:27:42;;;;;;;;;;;32.50;99.90;;;;;;4941024;28;25185;-67
2022/06/26 08:30:09;;;;;;;;;;;31.40;99.90;;;;;;4976466;28;25068;-67
2022/06/26 08:32:41;;;;;;;;;;;31.40;99.90;;;;;;4892195;28;25124;-67
2022/06/26 08:35:09;;;;;;;;;;;31.70;99.90;;;;;;4909810;28;28138;-66
2022/06/26 08:37:35;;;;;;;;;;;31.00;99.90;;;;;;4904662;28;38135;-66
2022/06/26 08:40:03;;;;;;;;;;;30.70;99.90;;;;;;4887857;28;29095;-66
2022/06/26 08:42:31;;;;;;;;;;;31.10;99.90;;;;;;4879595;28;45110;-66
2022/06/26 08:44:59;;;;;;;;;;;31.60;99.90;;;;;;4885304;28;42130;-66
2022/06/26 08:47:29;;;;;;;;;;;32.10;99.90;;;;;;4884848;28;103172;-66
2022/06/26 08:49:57;;;;;;;;;;;32.60;99.90;;;;;;4885083;28;68146;-66
2022/06/26 08:52:24;;;;;;;;;;;33.00;99.90;;;;;;4887535;28;46118;-67
2022/06/26 08:54:50;;;;;;;;;;;32.40;99.90;;;;;;4883706;28;30155;-67
2022/06/26 08:57:24;;;;;;;;;;;32.60;99.90;;;;;;4884706;28;50065;-67
2022/06/26 08:59:51;;;;;;;;;;;31.60;99.90;;;;;;4889223;28;51144;-67
2022/06/26 09:02:17;;;;;;;;;;;32.00;99.90;;;;;;4892444;28;42151;-67
2022/06/26 09:04:44;;;;;;;;;;;31.90;99.90;;;;;;4893588;28;31091;-67
2022/06/26 09:07:11;;;;;;;;;;;32.40;99.90;;;;;;4891576;28;28114;-67
2022/06/26 09:09:38;;;;;;;;;;;33.20;99.60;;;;;;4899298;28;31104;-67
2022/06/26 09:12:06;;;;;;;;;;;33.50;99.90;;;;;;4892577;28;37233;-68
2022/06/26 09:14:32;;;;;;;;;;;33.10;99.30;;;;;;4882713;28;26085;-67
2022/06/26 09:16:59;;;;;;;;;;;33.20;99.10;;;;;;4886313;28;34140;-67
2022/06/26 09:19:30;;;;;;;;;;;32.90;98.70;;;;;;4884292;28;30188;-67
2022/06/26 09:22:07;;;;;;;;;;;32.20;98.70;;;;;;4884853;28;41130;-68
2022/06/26 09:24:36;;;;;;;;;;;32.40;99.90;;;;;;4881136;28;30105;-68
2022/06/26 09:27:10;;;;;;;;;;;33.00;99.90;;;;;;4886015;28;32065;-67
2022/06/26 09:29:40;;;;;;;;;;;33.40;98.70;;;;;;4883187;28;35123;-68
2022/06/26 09:32:11;;;;;;;;;;;33.40;99.20;;;;;;4889429;28;28090;-67
2022/06/26 09:34:42;;;;;;;;;;;33.60;98.60;;;;;;4905582;28;31158;-68
2022/06/26 09:37:10;;;;;;;;;;;33.60;98.30;;;;;;4896354;28;53142;-67
2022/06/26 09:39:36;;;;;;;;;;;33.10;97.80;;;;;;4891114;28;43154;-68
2022/06/26 09:42:15;;;;;;;;;;;32.90;97.70;;;;;;4894172;28;67171;-68
2022/06/26 09:44:49;;;;;;;;;;;32.80;98.30;;;;;;4888535;28;65240;-68
2022/06/26 09:47:23;;;;;;;;;;;32.60;99.80;;;;;;4886117;28;129183;-67
2022/06/26 09:49:51;;;;;;;;;;;32.20;98.80;;;;;;4889887;28;79171;-67
2022/06/26 09:52:20;;;;;;;;;;;33.00;99.40;;;;;;4893967;28;41106;-67
2022/06/26 09:54:47;;;;;;;;;;;33.20;98.20;;;;;;4890582;28;63151;-68
2022/06/26 09:57:14;;;;;;;;;;;33.20;98.60;;;;;;4891424;28;105150;-67
2022/06/26 09:59:42;;;;;;;;;;;33.40;98.80;;;;;;4889989;28;55170;-68
2022/06/26 10:07:52;;;;;;;;;;;33.90;97.20;;;;;;4896226;28;59118;-68
2022/06/26 10:10:22;;;;;;;;;;;33.60;97.70;;;;;;4896555;28;58117;-68
2022/06/26 10:12:52;;;;;;;;;;;34.40;97.40;;;;;;4894108;28;59145;-67
2022/06/26 10:15:21;;;;;;;;;;;34.80;96.50;;;;;;4893143;28;94162;-68
2022/06/26 10:18:06;;;;;;;;;;;35.00;97.10;;;;;;4898817;28;43111;-67
2022/06/26 10:20:34;;;;;;;;;;;34.90;96.20;;;;;;4890353;28;49150;-67
2022/06/26 10:23:01;;;;;;;;;;;34.20;96.60;;;;;;4891284;28;65111;-68
2022/06/26 10:25:28;;;;;;;;;;;34.10;96.90;;;;;;4896574;28;57151;-68
2022/06/26 10:27:56;;;;;;;;;;;33.40;96.30;;;;;;4898609;28;53129;-67
2022/06/26 10:30:27;;;;;;;;;;;33.40;96.00;;;;;;4892973;28;51117;-68
2022/06/26 10:33:10;;;;;;;;;;;33.50;97.40;;;;;;4888218;28;122146;-67
2022/06/26 10:35:40;;;;;;;;;;;34.10;96.00;;;;;;4889890;28;58139;-67
2022/06/26 10:38:18;;;;;;;;;;;33.70;95.50;;;;;;4864033;28;71152;-68
2022/06/26 10:43:47;;;;;;;;;;;32.50;96.80;;;;;;4878865;28;42116;-68
2022/06/26 10:46:14;;;;;;;;;;;31.50;97.20;;;;;;4872463;28;60115;-68
2022/06/26 10:48:52;;;;;;;;;;;30.80;97.60;;;;;;4872582;28;91151;-69
2022/06/26 10:51:27;;;;;;;;;;;31.40;97.00;;;;;;4876447;28;58091;-65
2022/06/26 10:53:53;;;;;;;;;;;32.00;97.10;;;;;;4887220;28;68107;-66
2022/06/26 10:56:21;;;;;;;;;;;32.80;96.40;;;;;;4891369;28;57089;-65
2022/06/26 10:59:01;;;;;;;;;;;32.60;95.80;;;;;;4885807;28;66160;-64
2022/06/26 11:01:28;;;;;;;;;;;32.50;97.20;;;;;;4890419;28;46108;-65
2022/06/26 11:03:55;;;;;;;;;;;33.00;97.70;;;;;;4892057;28;78156;-65
2022/06/26 11:06:24;;;;;;;;;;;33.40;96.20;;;;;;4895134;28;42140;-65
2022/06/26 11:08:52;;;;;;;;;;;33.40;96.00;;;;;;4894000;28;67166;-65
2022/06/26 11:11:30;;;;;;;;;;;33.60;95.80;;;;;;4889995;28;41088;-64
2022/06/26 11:13:57;;;;;;;;;;;33.90;94.70;;;;;;4891327;28;66164;-64
2022/06/26 11:16:38;;;;;;;;;;;33.70;95.20;;;;;;4889827;28;75159;-64
2022/06/26 11:19:05;;;;;;;;;;;33.10;96.10;;;;;;4883126;28;62064;-63
2022/06/26 11:21:32;;;;;;;;;;;33.00;95.80;;;;;;4883727;28;78183;-65
2022/06/26 11:23:59;;;;;;;;;;;33.20;96.10;;;;;;4885984;28;70164;-64
2022/06/26 11:26:26;;;;;;;;;;;33.30;95.50;;;;;;4889142;28;46117;-64
2022/06/26 11:28:54;;;;;;;;;;;33.40;95.30;;;;;;4887474;28;54147;-64
2022/06/26 11:31:23;;;;;;;;;;;33.20;95.70;;;;;;4888902;28;133173;-65
2022/06/26 11:33:50;;;;;;;;;;;33.60;96.10;;;;;;4886035;28;65163;-65
2022/06/26 11:36:17;;;;;;;;;;;34.20;95.40;;;;;;4894874;28;52106;-66
2022/06/26 11:38:50;;;;;;;;;;;34.50;94.80;;;;;;4891963;28;61169;-65
2022/06/26 11:41:17;;;;;;;;;;;35.20;94.70;;;;;;4898236;28;56126;-66
2022/06/26 11:43:45;;;;;;;;;;;35.20;94.80;;;;;;4898402;28;48127;-66
2022/06/26 11:46:12;;;;;;;;;;;35.30;94.50;;;;;;4893978;28;44093;-65
2022/06/26 11:48:38;;;;;;;;;;;35.10;93.30;;;;;;4891978;28;42074;-65
2022/06/26 11:51:05;;;;;;;;;;;33.90;93.60;;;;;;4891720;28;37560;-64
2022/06/26 11:53:33;;;;;;;;;;;33.30;93.90;;;;;;4888283;28;55161;-65
2022/06/26 11:56:00;;;;;;;;;;;33.00;95.00;;;;;;4889632;28;43065;-64
2022/06/26 11:58:32;;;;;;;;;;;32.80;94.60;;;;;;4880007;28;38107;-64
2022/06/26 12:01:05;;;;;;;;;;;32.40;95.00;;;;;;4878441;28;42174;-64
2022/06/26 12:03:32;;;;;;;;;;;32.60;94.90;;;;;;4881825;28;78169;-65
2022/06/26 12:05:59;;;;;;;;;;;32.50;95.90;;;;;;4878322;28;30083;-64
2022/06/26 12:08:28;;;;;;;;;;;32.40;95.70;;;;;;4887322;28;55179;-63
2022/06/26 12:10:55;;;;;;;;;;;32.10;95.80;;;;;;4883657;28;74145;-81
2022/06/26 12:13:32;;;;;;;;;;;31.80;96.00;;;;;;4888867;28;48162;-83
2022/06/26 12:16:08;;;;;;;;;;;31.40;96.20;;;;;;4888159;28;65147;-79
2022/06/26 12:18:40;;;;;;;;;;;31.10;96.70;;;;;;4878463;28;72174;-82
2022/06/26 12:21:20;;;;;;;;;;;30.90;96.70;;;;;;4891117;28;100157;-81
2022/06/26 12:23:48;;;;;;;;;;;31.00;97.00;;;;;;4895031;28;65161;-83
2022/06/26 12:26:19;;;;;;;;;;;31.50;96.40;;;;;;4860554;28;185185;-80
2022/06/26 12:28:50;;;;;;;;;;;31.80;95.80;;;;;;4878890;28;73162;-84
2022/06/26 12:31:18;;;;;;;;;;;31.80;96.20;;;;;;4881865;28;43096;-82
2022/06/26 12:33:45;;;;;;;;;;;31.60;95.90;;;;;;4885125;28;44859;-82
2022/06/26 12:36:19;;;;;;;;;;;31.40;96.30;;;;;;4888071;28;71186;-81
2022/06/26 12:38:46;;;;;;;;;;;31.60;96.40;;;;;;4887145;28;86188;-82
2022/06/26 12:41:19;;;;;;;;;;;31.80;95.90;;;;;;4889178;28;56165;-81
2022/06/26 12:43:47;;;;;;;;;;;31.70;96.10;;;;;;4893317;28;44172;-81
2022/06/26 12:46:16;;;;;;;;;;;31.60;96.70;;;;;;4882349;28;49138;-84
2022/06/26 12:48:43;;;;;;;;;;;31.70;96.70;;;;;;4886415;28;41072;-79
2022/06/26 12:51:10;;;;;;;;;;;32.90;96.70;;;;;;4889857;28;61089;-83
2022/06/26 12:53:38;;;;;;;;;;;33.60;95.50;;;;;;4894681;28;35098;-83
2022/06/26 12:56:04;;;;;;;;;;;33.70;95.10;;;;;;4893701;28;36053;-85
2022/06/26 12:58:31;;;;;;;;;;;33.50;95.20;;;;;;4897077;28;47170;-82
2022/06/26 13:00:58;;;;;;;;;;;33.60;95.00;;;;;;4894911;28;60125;-81
2022/06/26 13:03:25;;;;;;;;;;;33.50;95.10;;;;;;4896600;28;45078;-85
2022/06/26 13:05:51;;;;;;;;;;;33.40;94.90;;;;;;4891010;28;39115;-85
2022/06/26 13:08:18;;;;;;;;;;;32.90;95.10;;;;;;4891512;28;57152;-81
2022/06/26 13:10:45;;;;;;;;;;;31.90;95.40;;;;;;4895105;28;51142;-85
2022/06/26 13:13:22;;;;;;;;;;;31.60;95.80;;;;;;4898362;28;33115;-81
2022/06/26 13:15:48;;;;;;;;;;;31.70;95.70;;;;;;4891637;28;63172;-78
2022/06/26 13:18:15;;;;;;;;;;;31.70;95.70;;;;;;4897975;28;45186;-79
2022/06/26 13:20:42;;;;;;;;;;;31.80;95.80;;;;;;4901826;28;35133;-81
2022/06/26 13:23:09;;;;;;;;;;;32.10;96.20;;;;;;4900806;28;39107;-81
2022/06/26 13:25:35;;;;;;;;;;;32.80;95.80;;;;;;4908381;28;52179;-85
2022/06/26 13:28:02;;;;;;;;;;;33.20;95.30;;;;;;4903494;28;30067;-79
2022/06/26 13:30:29;;;;;;;;;;;32.80;95.00;;;;;;4893650;28;30139;-81
2022/06/26 13:33:02;;;;;;;;;;;33.40;94.60;;;;;;4901437;28;45158;-79
2022/06/26 13:35:29;;;;;;;;;;;34.00;95.20;;;;;;4907284;28;41108;-77
2022/06/26 13:37:56;;;;;;;;;;;34.70;94.10;;;;;;4890797;28;108156;-79
2022/06/26 13:40:22;;;;;;;;;;;34.50;93.30;;;;;;4899894;28;41155;-78
2022/06/26 13:42:49;;;;;;;;;;;33.60;93.30;;;;;;4892791;28;37107;-80
2022/06/26 13:45:16;;;;;;;;;;;33.30;94.00;;;;;;4897971;28;44129;-80
2022/06/26 13:47:43;;;;;;;;;;;33.00;94.20;;;;;;4907317;28;45092;-85
2022/06/26 13:50:10;;;;;;;;;;;32.80;94.30;;;;;;4899859;28;44145;-83
2022/06/26 13:52:37;;;;;;;;;;;32.30;94.80;;;;;;4917154;28;37066;-82
2022/06/26 13:55:08;;;;;;;;;;;32.00;94.60;;;;;;4895849;28;83148;-75
2022/06/26 13:57:35;;;;;;;;;;;32.00;95.30;;;;;;4897715;28;37123;-83
2022/06/26 14:00:08;;;;;;;;;;;31.90;95.30;;;;;;4913553;28;68090;-84
2022/06/26 14:02:35;;;;;;;;;;;31.90;95.30;;;;;;4887018;28;209185;-79
2022/06/26 14:05:03;;;;;;;;;;;31.50;95.80;;;;;;4911299;28;45140;-78
2022/06/26 14:07:29;;;;;;;;;;;31.30;96.40;;;;;;4894396;28;30071;-77
2022/06/26 14:09:59;;;;;;;;;;;30.90;96.60;;;;;;4891277;28;63148;-78
2022/06/26 14:12:26;;;;;;;;;;;30.90;96.90;;;;;;4901715;28;41087;-77
2022/06/26 14:14:58;;;;;;;;;;;31.20;96.60;;;;;;4901287;28;41098;-79
2022/06/26 14:17:27;;;;;;;;;;;31.60;96.40;;;;;;4900152;28;49103;-78
2022/06/26 14:19:58;;;;;;;;;;;32.00;96.20;;;;;;4896536;28;49149;-80
2022/06/26 14:27:55;;;;;;;;;;;31.80;96.40;;;;;;4900950;28;46149;-81
2022/06/26 14:30:28;;;;;;;;;;;31.20;96.70;;;;;;4899761;28;35152;-79
2022/06/26 14:32:55;;;;;;;;;;;30.80;97.60;;;;;;4900654;28;45102;-89
2022/06/26 14:35:22;;;;;;;;;;;31.10;97.10;;;;;;4899871;28;47138;-90
2022/06/26 14:37:49;;;;;;;;;;;31.10;97.20;;;;;;4894258;28;48107;-82
2022/06/26 14:40:15;;;;;;;;;;;31.40;97.20;;;;;;4896001;28;70099;-81